createdAt,value
2023-01-18T00:01:03.126Z,28.80
2023-01-18T00:03:54.008Z,25.90
2023-01-18T00:06:41.395Z,21.35
2023-01-18T00:09:28.434Z,18.98
2023-01-18T00:12:18.952Z,20.60
2023-01-18T00:15:09.669Z,26.67
2023-01-18T00:17:57.087Z,24.00
2023-01-18T00:20:44.130Z,19.48
2023-01-18T00:23:32.374Z,17.73
2023-01-18T00:26:20.920Z,17.65
2023-01-18T00:29:11.208Z,17.75
2023-01-18T00:32:00.553Z,20.70
2023-01-18T00:34:50.589Z,21.85
2023-01-18T00:37:37.897Z,25.85
2023-01-18T00:40:28.820Z,24.52
2023-01-18T00:43:34.422Z,25.55
2023-01-18T00:46:27.404Z,25.60
2023-01-18T00:49:14.516Z,26.52
2023-01-18T00:52:01.565Z,24.50
2023-01-18T00:54:48.683Z,24.08
2023-01-18T00:57:35.724Z,26.38
2023-01-18T01:00:27.009Z,27.00
2023-01-18T01:03:17.320Z,27.65
2023-01-18T01:06:22.909Z,25.50
2023-01-18T01:09:12.687Z,29.77
2023-01-18T01:12:22.236Z,28.65
2023-01-18T01:15:29.063Z,27.02
2023-01-18T01:18:36.235Z,28.77
2023-01-18T01:21:41.638Z,28.70
2023-01-18T01:24:47.299Z,27.33
2023-01-18T01:27:34.383Z,30.27
2023-01-18T01:30:21.490Z,30.50
2023-01-18T01:33:10.643Z,29.80
2023-01-18T01:36:06.608Z,29.92
2023-01-18T01:38:54.935Z,30.80
2023-01-18T01:41:42.218Z,30.98
2023-01-18T01:44:35.051Z,32.63
2023-01-18T01:47:40.537Z,30.25
2023-01-18T01:50:41.926Z,29.20
2023-01-18T01:53:29.136Z,28.92
2023-01-18T01:56:20.288Z,26.48
2023-01-18T01:59:08.822Z,25.58
2023-01-18T02:01:56.058Z,26.25
2023-01-18T02:04:45.280Z,22.40
2023-01-18T02:07:33.241Z,24.65
2023-01-18T02:10:22.920Z,22.55
2023-01-18T02:13:13.337Z,23.88
2023-01-18T02:16:35.399Z,24.80
2023-01-18T02:19:47.821Z,22.60
2023-01-18T02:23:12.572Z,23.23
2023-01-18T02:26:12.674Z,24.90
2023-01-18T02:29:29.121Z,24.67
2023-01-18T02:32:49.482Z,25.77
2023-01-18T02:35:46.464Z,20.77
2023-01-18T02:38:44.574Z,22.05
2023-01-18T02:42:02.914Z,21.95
2023-01-18T02:45:09.959Z,23.48
2023-01-18T02:47:57.295Z,21.65
2023-01-18T02:50:46.821Z,21.50
2023-01-18T02:53:40.287Z,20.52
2023-01-18T02:56:53.999Z,20.05
2023-01-18T02:59:55.644Z,20.17
2023-01-18T03:02:43.901Z,19.17
2023-01-18T03:05:34.468Z,18.58
2023-01-18T03:08:40.526Z,19.15
2023-01-18T03:11:33.573Z,22.30
2023-01-18T03:14:31.740Z,21.38
2023-01-18T03:17:26.629Z,20.25
2023-01-18T03:20:19.265Z,18.65
2023-01-18T03:26:20.288Z,16.60
2023-01-18T03:29:26.397Z,17.17
2023-01-18T03:32:35.783Z,17.83
2023-01-18T03:35:28.406Z,17.30
2023-01-18T03:41:08.671Z,18.38
2023-01-18T03:44:00.046Z,17.73
2023-01-18T03:46:47.448Z,20.08
2023-01-18T03:49:35.209Z,17.98
2023-01-18T03:52:28.814Z,18.40
2023-01-18T03:55:49.008Z,16.40
2023-01-18T03:58:37.124Z,16.15
2023-01-18T04:01:25.905Z,15.82
2023-01-18T04:04:12.980Z,16.88
2023-01-18T04:07:00.237Z,17.33
2023-01-18T04:09:50.057Z,16.50
2023-01-18T04:12:39.818Z,16.75
2023-01-18T04:15:32.779Z,16.85
2023-01-18T04:18:20.170Z,17.52
2023-01-18T04:21:10.318Z,18.08
2023-01-18T04:23:59.885Z,18.65
2023-01-18T04:26:47.310Z,18.70
2023-01-18T04:29:36.916Z,18.15
2023-01-18T04:32:26.257Z,15.68
2023-01-18T04:35:13.989Z,15.35
2023-01-18T04:38:01.100Z,14.77
2023-01-18T04:40:51.937Z,13.55
2023-01-18T04:43:39.028Z,13.85
2023-01-18T04:46:28.374Z,13.90
2023-01-18T04:49:17.607Z,15.38
2023-01-18T04:52:07.883Z,15.23
2023-01-18T04:54:55.403Z,14.98
2023-01-18T04:57:43.924Z,16.20
2023-01-18T05:00:31.106Z,16.33
2023-01-18T05:03:47.059Z,14.77
2023-01-18T05:06:37.245Z,15.25
2023-01-18T05:09:25.492Z,14.23
2023-01-18T05:12:12.651Z,15.55
2023-01-18T05:14:59.779Z,15.50
2023-01-18T05:17:47.088Z,14.07
2023-01-18T05:20:34.243Z,13.30
2023-01-18T05:23:29.307Z,14.65
2023-01-18T05:26:21.520Z,13.00
2023-01-18T05:29:09.568Z,13.82
2023-01-18T05:32:00.561Z,12.00
2023-01-18T05:34:51.818Z,12.90
2023-01-18T05:37:40.076Z,13.30
2023-01-18T05:40:27.634Z,12.90
2023-01-18T05:43:16.946Z,12.90
2023-01-18T05:46:05.391Z,12.52
2023-01-18T05:48:58.433Z,14.13
2023-01-18T05:51:45.594Z,13.52
2023-01-18T05:54:38.269Z,13.77
2023-01-18T06:00:12.897Z,12.63
2023-01-18T06:03:03.289Z,11.82
2023-01-18T06:05:53.330Z,11.38
2023-01-18T06:08:42.208Z,11.52
2023-01-18T06:11:29.418Z,11.35
2023-01-18T06:14:16.624Z,12.02
2023-01-18T06:17:05.077Z,11.68
2023-01-18T06:19:52.274Z,12.73
2023-01-18T06:22:40.999Z,10.98
2023-01-18T06:25:28.145Z,10.43
2023-01-18T06:28:15.541Z,11.85
2023-01-18T06:31:11.648Z,11.98
2023-01-18T06:34:09.158Z,12.18
2023-01-18T06:36:56.395Z,12.60
2023-01-18T06:39:43.505Z,11.20
2023-01-18T06:42:30.635Z,12.15
2023-01-18T06:45:22.012Z,12.10
2023-01-18T06:48:39.167Z,13.18
2023-01-18T06:51:28.419Z,13.35
2023-01-18T06:54:22.143Z,13.70
2023-01-18T06:57:12.275Z,15.45
2023-01-18T07:00:06.350Z,14.70
2023-01-18T07:02:53.538Z,16.45
2023-01-18T07:05:46.513Z,15.27
2023-01-18T07:08:34.733Z,16.63
2023-01-18T07:11:25.676Z,16.27
2023-01-18T07:14:15.782Z,16.45
2023-01-18T07:17:06.257Z,15.63
2023-01-18T07:19:54.206Z,17.58
2023-01-18T07:22:41.592Z,19.35
2023-01-18T07:25:29.585Z,16.80
2023-01-18T07:28:18.852Z,18.63
2023-01-18T07:31:08.087Z,18.60
2023-01-18T07:33:57.787Z,16.88
2023-01-18T07:36:44.976Z,15.50
2023-01-18T07:39:32.087Z,16.23
2023-01-18T07:42:21.291Z,15.13
2023-01-18T07:45:09.509Z,15.15
2023-01-18T07:48:01.697Z,14.90
2023-01-18T07:51:18.525Z,15.18
2023-01-18T07:57:39.188Z,12.25
2023-01-18T08:00:29.307Z,13.30
2023-01-18T08:03:23.554Z,12.23
2023-01-18T08:06:25.130Z,12.18
2023-01-18T08:09:15.088Z,11.27
2023-01-18T08:12:16.744Z,11.13
2023-01-18T08:15:04.743Z,9.73
2023-01-18T08:17:52.484Z,10.82
2023-01-18T08:20:44.791Z,10.43
2023-01-18T08:23:31.958Z,10.43
2023-01-18T08:26:19.221Z,9.38
2023-01-18T08:29:06.599Z,9.35
2023-01-18T08:31:56.685Z,9.73
2023-01-18T08:34:44.065Z,9.80
2023-01-18T08:37:31.496Z,9.68
2023-01-18T08:40:20.799Z,8.35
2023-01-18T08:43:09.433Z,9.65
2023-01-18T08:45:56.572Z,9.07
2023-01-18T08:48:48.445Z,9.20
2023-01-18T08:51:37.537Z,8.35
2023-01-18T08:54:29.608Z,8.52
2023-01-18T08:57:17.161Z,8.60
2023-01-18T09:00:04.929Z,7.70
2023-01-18T09:02:52.548Z,7.85
2023-01-18T09:05:40.303Z,7.40
2023-01-18T09:08:28.783Z,7.55
2023-01-18T09:11:17.158Z,7.40
2023-01-18T09:14:05.969Z,7.57
2023-01-18T09:16:56.356Z,7.22
2023-01-18T09:19:44.362Z,8.32
2023-01-18T09:22:32.806Z,7.15
2023-01-18T09:25:22.239Z,7.25
2023-01-18T09:28:09.701Z,7.45
2023-01-18T09:31:06.488Z,7.00
2023-01-18T09:34:19.019Z,6.72
2023-01-18T09:37:07.239Z,5.97
2023-01-18T09:40:00.409Z,6.05
2023-01-18T09:42:51.819Z,5.65
2023-01-18T09:45:44.575Z,5.72
2023-01-18T09:51:30.589Z,5.20
2023-01-18T09:54:48.268Z,5.45
2023-01-18T09:57:53.055Z,4.85
2023-01-18T10:00:46.042Z,4.47
2023-01-18T10:03:47.039Z,4.78
2023-01-18T10:06:59.958Z,5.45
2023-01-18T10:09:58.835Z,6.00
2023-01-18T10:13:05.464Z,6.30
2023-01-18T10:15:53.079Z,5.72
2023-01-18T10:18:48.681Z,7.00
2023-01-18T10:22:14.743Z,7.00
2023-01-18T10:25:07.236Z,7.85
2023-01-18T10:28:25.417Z,9.40
2023-01-18T10:31:35.204Z,8.63
2023-01-18T10:34:32.879Z,6.68
2023-01-18T10:37:45.421Z,7.40
2023-01-18T10:40:37.702Z,7.57
2023-01-18T10:43:26.729Z,7.70
2023-01-18T10:46:16.848Z,8.05
2023-01-18T10:49:04.462Z,7.35
2023-01-18T10:51:51.708Z,6.90
2023-01-18T10:54:48.823Z,8.10
2023-01-18T10:57:58.059Z,7.65
2023-01-18T11:00:54.473Z,7.05
2023-01-18T11:03:55.546Z,8.48
2023-01-18T11:06:59.343Z,7.38
2023-01-18T11:09:56.863Z,6.28
2023-01-18T11:12:47.918Z,6.13
2023-01-18T11:15:35.362Z,8.05
2023-01-18T11:18:26.006Z,7.88
2023-01-18T11:21:17.612Z,6.82
2023-01-18T11:24:13.843Z,5.77
2023-01-18T11:27:04.408Z,7.20
2023-01-18T11:29:51.994Z,6.35
2023-01-18T11:32:41.740Z,6.20
2023-01-18T11:35:37.426Z,6.60
2023-01-18T11:38:33.744Z,6.05
2023-01-18T11:41:24.824Z,5.78
2023-01-18T11:44:47.807Z,6.13
2023-01-18T11:47:44.110Z,5.60
2023-01-18T11:50:53.074Z,5.90
2023-01-18T11:54:06.937Z,5.82
2023-01-18T11:56:59.687Z,5.90
2023-01-18T11:59:49.175Z,5.03
2023-01-18T12:03:02.070Z,4.50
2023-01-18T12:06:05.211Z,6.68
2023-01-18T12:09:16.842Z,5.15
2023-01-18T12:12:34.067Z,5.05
2023-01-18T12:15:58.276Z,5.45
2023-01-18T12:19:33.820Z,6.53
2023-01-18T12:22:48.903Z,5.40
2023-01-18T12:25:45.466Z,5.60
2023-01-18T12:28:38.594Z,5.00
2023-01-18T12:31:44.347Z,4.60
2023-01-18T12:34:42.069Z,4.75
2023-01-18T12:37:53.913Z,5.13
2023-01-18T12:41:02.002Z,5.15
2023-01-18T12:44:28.856Z,5.55
2023-01-18T12:47:39.675Z,5.47
2023-01-18T12:50:34.081Z,4.88
2023-01-18T12:53:27.868Z,5.85
2023-01-18T12:56:29.702Z,5.75
2023-01-18T12:59:42.494Z,4.10
2023-01-18T13:02:48.122Z,5.00
2023-01-18T13:05:51.401Z,5.70
2023-01-18T13:08:43.727Z,5.13
2023-01-18T13:11:39.084Z,5.28
2023-01-18T13:14:39.288Z,5.45
2023-01-18T13:17:31.259Z,5.57
2023-01-18T13:20:24.130Z,6.13
2023-01-18T13:23:37.868Z,4.63
2023-01-18T13:26:34.492Z,5.78
2023-01-18T13:29:30.734Z,5.88
2023-01-18T13:32:35.691Z,3.88
2023-01-18T13:35:34.245Z,4.88
2023-01-18T13:38:40.314Z,4.43
2023-01-18T13:41:35.648Z,4.38
2023-01-18T13:44:45.995Z,4.88
2023-01-18T13:47:42.002Z,5.18
2023-01-18T13:50:33.039Z,5.68
2023-01-18T13:53:22.538Z,4.00
2023-01-18T13:56:29.919Z,4.82
2023-01-18T13:59:24.523Z,3.92
2023-01-18T14:02:42.798Z,4.75
2023-01-18T14:05:44.312Z,5.25
2023-01-18T14:08:34.459Z,5.30
2023-01-18T14:11:46.297Z,4.80
2023-01-18T14:14:50.265Z,4.03
2023-01-18T14:17:57.818Z,6.57
2023-01-18T14:20:52.073Z,5.80
2023-01-18T14:23:55.308Z,6.60
2023-01-18T14:26:45.458Z,5.47
2023-01-18T14:29:34.386Z,4.72
2023-01-18T14:32:43.981Z,5.40
2023-01-18T14:35:34.610Z,5.45
2023-01-18T14:38:25.256Z,6.95
2023-01-18T14:41:17.427Z,5.68
2023-01-18T14:44:06.400Z,7.47
2023-01-18T14:46:59.789Z,4.63
2023-01-18T14:49:50.515Z,5.38
2023-01-18T14:52:38.621Z,6.13
2023-01-18T14:55:32.507Z,5.78
2023-01-18T14:58:19.900Z,4.38
2023-01-18T15:01:09.476Z,5.63
2023-01-18T15:03:59.751Z,4.28
2023-01-18T15:06:58.705Z,4.18
2023-01-18T15:09:47.383Z,3.50
2023-01-18T15:12:35.783Z,4.50
2023-01-18T15:15:45.562Z,4.10
2023-01-18T15:18:35.183Z,4.53
2023-01-18T15:21:27.241Z,3.92
2023-01-18T15:24:23.300Z,4.35
2023-01-18T15:27:16.513Z,5.05
2023-01-18T15:30:13.112Z,4.10
2023-01-18T15:33:03.571Z,4.22
2023-01-18T15:36:02.016Z,5.40
2023-01-18T15:38:52.183Z,5.57
2023-01-18T15:41:42.439Z,6.88
2023-01-18T15:44:38.989Z,7.82
2023-01-18T15:47:38.281Z,6.15
2023-01-18T15:50:39.334Z,7.07
2023-01-18T15:54:04.384Z,6.40
2023-01-18T15:56:52.263Z,8.60
2023-01-18T15:59:43.705Z,9.43
2023-01-18T16:02:31.626Z,6.93
2023-01-18T16:05:28.711Z,7.15
2023-01-18T16:08:20.714Z,6.05
2023-01-18T16:11:35.299Z,5.50
2023-01-18T16:14:37.981Z,7.35
2023-01-18T16:17:33.386Z,10.38
2023-01-18T16:20:23.622Z,11.23
2023-01-18T16:23:23.190Z,11.52
2023-01-18T16:26:14.358Z,11.27
2023-01-18T16:29:11.930Z,10.40
2023-01-18T16:32:32.419Z,10.10
2023-01-18T16:35:25.212Z,9.45
2023-01-18T16:38:19.674Z,8.55
2023-01-18T16:41:22.854Z,8.25
2023-01-18T16:44:12.079Z,7.68
2023-01-18T16:46:59.426Z,9.32
2023-01-18T16:49:49.242Z,7.47
2023-01-18T16:52:39.052Z,8.38
2023-01-18T16:55:27.219Z,8.75
2023-01-18T16:58:17.045Z,9.88
2023-01-18T17:01:16.400Z,8.63
2023-01-18T17:04:03.885Z,10.07
2023-01-18T17:07:00.225Z,9.35
2023-01-18T17:13:48.206Z,6.95
2023-01-18T17:16:38.525Z,8.18
2023-01-18T17:19:27.184Z,7.88
2023-01-18T17:22:22.279Z,7.68
2023-01-18T17:25:12.802Z,8.38
2023-01-18T17:28:04.266Z,8.55
2023-01-18T17:30:51.943Z,8.52
2023-01-18T17:33:43.935Z,8.15
2023-01-18T17:36:31.419Z,8.50
2023-01-18T17:39:20.259Z,8.85
2023-01-18T17:42:14.235Z,7.72
2023-01-18T17:45:05.676Z,8.07
2023-01-18T17:48:01.398Z,8.25
2023-01-18T17:50:49.172Z,8.57
2023-01-18T17:53:38.398Z,7.70
2023-01-18T17:56:26.480Z,7.28
2023-01-18T17:59:16.207Z,8.98
2023-01-18T18:02:04.620Z,8.75
2023-01-18T18:04:53.958Z,9.30
2023-01-18T18:07:41.402Z,9.70
2023-01-18T18:10:37.934Z,8.68
2023-01-18T18:13:26.537Z,9.00
2023-01-18T18:16:18.838Z,10.32
2023-01-18T18:19:06.457Z,10.20
2023-01-18T18:21:57.597Z,9.13
2023-01-18T18:24:47.480Z,9.45
2023-01-18T18:27:45.313Z,8.63
2023-01-18T18:30:35.845Z,8.32
2023-01-18T18:33:25.733Z,9.18
2023-01-18T18:36:13.375Z,8.52
2023-01-18T18:39:02.520Z,10.43
2023-01-18T18:41:50.085Z,10.07
2023-01-18T18:44:37.667Z,9.85
2023-01-18T18:47:32.708Z,11.45
2023-01-18T18:50:20.336Z,10.57
2023-01-18T18:53:08.068Z,10.30
2023-01-18T18:56:03.967Z,11.48
2023-01-18T18:58:53.418Z,11.13
2023-01-18T19:01:41.169Z,12.20
2023-01-18T19:04:29.008Z,12.68
2023-01-18T19:07:21.052Z,11.38
2023-01-18T19:10:14.776Z,11.77
2023-01-18T19:13:04.963Z,10.57
2023-01-18T19:15:53.000Z,11.15
2023-01-18T19:18:40.606Z,11.77
2023-01-18T19:21:28.029Z,12.63
2023-01-18T19:24:15.901Z,13.32
2023-01-18T19:27:08.436Z,13.57
2023-01-18T19:30:10.596Z,14.18
2023-01-18T19:33:03.246Z,13.00
2023-01-18T19:35:51.843Z,13.90
2023-01-18T19:38:46.730Z,15.27
2023-01-18T19:41:36.611Z,15.50
2023-01-18T19:44:24.510Z,15.38
2023-01-18T19:47:14.797Z,14.98
2023-01-18T19:50:05.683Z,14.43
2023-01-18T19:52:56.480Z,13.30
2023-01-18T19:55:49.213Z,14.75
2023-01-18T19:58:43.168Z,14.30
2023-01-18T20:01:36.910Z,15.10
2023-01-18T20:04:24.985Z,16.10
2023-01-18T20:07:15.026Z,14.45
2023-01-18T20:10:05.286Z,14.48
2023-01-18T20:12:53.140Z,15.13
2023-01-18T20:15:42.444Z,14.63
2023-01-18T20:18:33.867Z,15.38
2023-01-18T20:21:21.629Z,15.02
2023-01-18T20:24:11.563Z,16.55
2023-01-18T20:27:14.896Z,14.43
2023-01-18T20:30:07.066Z,15.45
2023-01-18T20:32:54.785Z,15.48
2023-01-18T20:35:43.210Z,14.65
2023-01-18T20:38:33.905Z,15.63
2023-01-18T20:41:26.613Z,17.02
2023-01-18T20:44:16.528Z,16.33
2023-01-18T20:47:04.601Z,14.45
2023-01-18T20:49:52.214Z,14.30
2023-01-18T20:52:48.735Z,14.77
2023-01-18T20:55:38.274Z,15.60
2023-01-18T20:58:26.179Z,14.35
2023-01-18T21:01:17.026Z,14.98
2023-01-18T21:04:05.738Z,13.05
2023-01-18T21:06:53.567Z,12.95
2023-01-18T21:09:41.293Z,14.05
2023-01-18T21:12:29.207Z,12.77
2023-01-18T21:15:17.002Z,13.55
2023-01-18T21:18:06.127Z,13.00
2023-01-18T21:20:55.176Z,13.63
2023-01-18T21:23:42.706Z,13.35
2023-01-18T21:26:30.645Z,13.70
2023-01-18T21:29:21.626Z,14.32
2023-01-18T21:35:16.689Z,14.65
2023-01-18T21:38:44.749Z,13.82
2023-01-18T21:45:20.640Z,14.25
2023-01-18T21:48:42.677Z,13.32
2023-01-18T21:58:11.097Z,15.02
2023-01-18T22:01:00.709Z,16.60
2023-01-18T22:04:08.340Z,18.88
2023-01-18T22:06:57.836Z,18.83
2023-01-18T22:09:52.392Z,17.95
2023-01-18T22:12:54.057Z,16.80
2023-01-18T22:15:41.471Z,17.30
2023-01-18T22:18:28.587Z,17.92
2023-01-18T22:21:16.474Z,20.58
2023-01-18T22:24:03.970Z,20.60
2023-01-18T22:26:52.706Z,21.98
2023-01-18T22:29:40.430Z,22.20
2023-01-18T22:32:27.999Z,20.67
2023-01-18T22:35:15.356Z,20.98
2023-01-18T22:38:06.011Z,20.77
2023-01-18T22:41:08.914Z,21.98
2023-01-18T22:47:52.368Z,22.05
2023-01-18T22:50:40.780Z,22.20
2023-01-18T22:53:31.363Z,23.00
2023-01-18T22:56:21.298Z,22.05
2023-01-18T22:59:09.176Z,22.23
2023-01-18T23:01:56.910Z,22.42
2023-01-18T23:04:44.059Z,22.33
2023-01-18T23:07:31.387Z,23.60
2023-01-18T23:10:18.790Z,23.30
2023-01-18T23:13:09.056Z,23.98
2023-01-18T23:16:14.688Z,26.80
2023-01-18T23:19:01.822Z,22.67
2023-01-18T23:21:51.272Z,25.00
2023-01-18T23:24:46.266Z,25.38
2023-01-18T23:27:36.539Z,22.25
2023-01-18T23:30:28.381Z,22.55
2023-01-18T23:33:15.490Z,22.02
2023-01-18T23:36:03.130Z,21.80
2023-01-18T23:39:11.149Z,22.85
2023-01-18T23:42:16.912Z,22.90
2023-01-18T23:45:26.460Z,21.85
2023-01-18T23:48:34.792Z,22.10
2023-01-18T23:51:40.423Z,22.98
2023-01-18T23:54:31.508Z,22.95
2023-01-18T23:57:21.382Z,21.30
